Time;durP1;ratioP1;P1;durP2;ratioP2;P2;SDS_P1;SDS_P2;PMS_P1;PMS_P2;Temp;Humidity;BMP_temperature;BMP_pressure;BME280_temperature;BME280_humidity;BME280_pressure;Samples;Min_cycle;Max_cycle;Signal;HPM_P1;HPM_P2
2022/04/29 00:01:09;;;;;;;2.07;2.07;;;19.10;64.10;;;;;;5108724;27;43737;-73
2022/04/29 00:03:37;;;;;;;2.07;2.07;;;19.00;64.10;;;;;;5089717;27;44378;-74
2022/04/29 00:06:07;;;;;;;2.10;2.10;;;19.00;64.30;;;;;;5109185;27;43919;-74
2022/04/29 00:08:35;;;;;;;2.23;2.23;;;19.00;64.80;;;;;;5108436;27;43925;-72
2022/04/29 00:11:03;;;;;;;2.30;2.30;;;19.10;64.70;;;;;;5108543;27;43971;-73
2022/04/29 00:13:32;;;;;;;2.10;2.10;;;19.30;64.30;;;;;;5108138;27;44123;-73
2022/04/29 00:16:00;;;;;;;2.17;2.17;;;19.50;63.90;;;;;;5090002;27;44040;-73
2022/04/29 00:18:29;;;;;;;2.30;2.20;;;19.60;63.20;;;;;;5108274;27;43395;-73
2022/04/29 00:20:56;;;;;;;2.23;2.23;;;19.60;62.90;;;;;;5108687;27;43765;-72
2022/04/29 00:23:24;;;;;;;2.00;2.00;;;19.60;63.50;;;;;;5107877;27;44120;-73
2022/04/29 00:25:52;;;;;;;1.97;1.97;;;19.50;62.90;;;;;;5089679;27;43893;-73
2022/04/29 00:28:20;;;;;;;2.00;2.00;;;19.40;63.00;;;;;;5108393;27;43819;-72
2022/04/29 00:30:49;;;;;;;2.00;1.90;;;19.30;63.30;;;;;;5108252;27;44987;-72
2022/04/29 00:33:17;;;;;;;1.70;1.70;;;19.30;63.60;;;;;;5107627;27;43953;-73
2022/04/29 00:35:47;;;;;;;2.30;2.30;;;19.20;63.70;;;;;;5089779;27;44059;-73
2022/04/29 00:38:17;;;;;;;1.97;1.97;;;19.20;64.00;;;;;;5089584;27;43486;-73
2022/04/29 00:40:45;;;;;;;2.00;2.00;;;19.10;64.50;;;;;;5108682;27;43829;-72
2022/04/29 00:43:13;;;;;;;2.13;2.13;;;19.10;64.60;;;;;;5107548;27;43865;-73
2022/04/29 00:45:41;;;;;;;2.30;2.20;;;19.30;64.70;;;;;;5108372;27;44063;-73
2022/04/29 00:48:11;;;;;;;1.90;1.90;;;19.50;64.20;;;;;;5089674;27;43990;-74
2022/04/29 00:50:39;;;;;;;2.03;2.03;;;19.60;63.50;;;;;;5088984;27;44199;-72
2022/04/29 00:53:07;;;;;;;1.97;1.97;;;19.60;63.30;;;;;;5107889;27;43667;-72
2022/04/29 00:55:35;;;;;;;1.90;1.90;;;19.60;63.20;;;;;;5107418;27;43919;-72
2022/04/29 00:58:07;;;;;;;1.70;1.70;;;19.50;63.10;;;;;;5108477;27;43983;-72
2022/04/29 01:00:35;;;;;;;2.00;2.00;;;19.40;63.20;;;;;;5099452;27;44735;-72
2022/04/29 01:03:04;;;;;;;1.70;1.70;;;19.30;63.40;;;;;;5088731;27;44056;-72
2022/04/29 01:05:34;;;;;;;2.10;2.10;;;19.20;63.60;;;;;;5099285;27;44029;-72
2022/04/29 01:08:02;;;;;;;1.90;1.90;;;19.20;63.80;;;;;;5101972;27;43967;-71
2022/04/29 01:10:30;;;;;;;2.00;2.00;;;19.20;64.00;;;;;;5107567;27;43876;-71
2022/04/29 01:13:00;;;;;;;2.10;2.10;;;19.10;64.10;;;;;;5107420;27;44054;-72
2022/04/29 01:15:28;;;;;;;1.93;1.93;;;19.10;64.70;;;;;;5107048;27;43986;-72
2022/04/29 01:17:58;;;;;;;2.10;2.00;;;19.20;64.80;;;;;;5089007;27;44187;-71
2022/04/29 01:20:28;;;;;;;1.80;1.70;;;19.30;64.50;;;;;;5106440;27;44037;-71
2022/04/29 01:22:58;;;;;;;1.90;1.90;;;19.40;64.00;;;;;;5088712;27;44436;-72
2022/04/29 01:25:26;;;;;;;1.70;1.70;;;19.40;63.80;;;;;;5088401;27;43997;-71
2022/04/29 01:27:56;;;;;;;1.70;1.70;;;19.30;63.60;;;;;;5089107;27;44285;-71
2022/04/29 01:30:25;;;;;;;1.60;1.60;;;19.30;63.80;;;;;;5088047;27;43948;-71
2022/04/29 01:32:53;;;;;;;1.70;1.70;;;19.20;63.90;;;;;;5088778;27;43971;-72
2022/04/29 01:35:21;;;;;;;1.97;1.97;;;19.20;64.10;;;;;;5087387;27;43924;-71
2022/04/29 01:37:49;;;;;;;1.60;1.60;;;19.10;64.20;;;;;;5089103;27;43884;-72
2022/04/29 01:40:20;;;;;;;1.90;1.90;;;19.10;64.40;;;;;;5088034;27;44876;-72
2022/04/29 01:42:49;;;;;;;1.80;1.80;;;19.10;64.50;;;;;;5088795;27;43968;-72
2022/04/29 01:45:17;;;;;;;1.80;1.80;;;19.00;64.50;;;;;;5106899;27;43913;-71
2022/04/29 01:48:12;;;;;;;1.80;1.80;;;19.00;64.80;;;;;;5103484;27;44188;-71
2022/04/29 01:51:06;;;;;;;1.87;1.87;;;19.10;65.20;;;;;;5105226;27;44635;-71
2022/04/29 01:53:34;;;;;;;1.70;1.70;;;19.20;64.80;;;;;;5106616;27;43791;-72
2022/04/29 01:56:03;;;;;;;1.60;1.60;;;19.50;64.40;;;;;;5088326;27;43922;-72
2022/04/29 01:58:32;;;;;;;1.70;1.70;;;19.60;63.60;;;;;;5088628;27;43944;-72
2022/04/29 02:01:00;;;;;;;1.67;1.67;;;19.70;63.20;;;;;;5088202;27;44041;-72
2022/04/29 02:03:29;;;;;;;1.73;1.73;;;19.70;63.00;;;;;;5087679;27;44061;-72
2022/04/29 02:05:57;;;;;;;1.70;1.70;;;19.60;63.00;;;;;;5107250;27;44081;-71
2022/04/29 02:08:25;;;;;;;1.70;1.70;;;19.50;63.00;;;;;;5087930;27;43999;-72
2022/04/29 02:10:53;;;;;;;1.70;1.70;;;19.40;63.20;;;;;;5087853;27;43992;-72
2022/04/29 02:13:28;;;;;;;1.70;1.70;;;19.30;63.50;;;;;;5087405;27;44084;-71
2022/04/29 02:16:28;;;;;;;1.63;1.63;;;19.30;63.70;;;;;;5088419;27;43976;-71
2022/04/29 02:18:56;;;;;;;1.67;1.67;;;19.20;63.90;;;;;;5088340;27;43991;-71
2022/04/29 02:21:27;;;;;;;1.70;1.70;;;19.20;64.20;;;;;;5087531;27;44072;-71
2022/04/29 02:23:58;;;;;;;1.87;1.87;;;19.10;64.80;;;;;;5088006;27;44343;-72
2022/04/29 02:26:25;;;;;;;1.50;1.50;;;19.20;64.70;;;;;;5105694;27;43948;-70
2022/04/29 02:28:55;;;;;;;1.80;1.80;;;19.30;64.40;;;;;;5107221;27;43363;-71
2022/04/29 02:31:23;;;;;;;1.67;1.67;;;19.40;64.10;;;;;;5087316;27;44068;-71
2022/04/29 02:33:51;;;;;;;1.67;1.67;;;19.40;63.80;;;;;;5106257;27;43898;-71
2022/04/29 02:36:19;;;;;;;1.70;1.70;;;19.30;63.60;;;;;;5087516;27;43427;-71
2022/04/29 02:38:47;;;;;;;1.70;1.70;;;19.30;63.80;;;;;;5088383;27;43916;-72
2022/04/29 02:41:15;;;;;;;1.70;1.70;;;19.20;63.90;;;;;;5087147;27;46016;-72
2022/04/29 02:43:44;;;;;;;1.60;1.60;;;19.20;64.10;;;;;;5087689;27;45079;-72
2022/04/29 02:46:13;;;;;;;1.60;1.60;;;19.10;64.20;;;;;;5088133;27;43393;-71
2022/04/29 02:48:41;;;;;;;1.80;1.80;;;19.10;64.30;;;;;;5091732;27;44014;-72
2022/04/29 02:51:11;;;;;;;1.50;1.50;;;19.10;64.50;;;;;;5091021;27;45756;-71
2022/04/29 02:53:39;;;;;;;1.90;1.90;;;19.00;64.50;;;;;;5091100;27;43986;-72
2022/04/29 02:56:07;;;;;;;1.80;1.80;;;19.00;65.00;;;;;;5091243;27;43904;-72
2022/04/29 02:58:50;;;;;;;1.60;1.60;;;19.10;65.00;;;;;;5091601;27;44229;-71
2022/04/29 03:01:20;;;;;;;1.70;1.70;;;19.30;64.80;;;;;;5109016;27;43936;-72
2022/04/29 03:03:49;;;;;;;1.60;1.60;;;19.50;64.30;;;;;;5091032;27;44966;-72
2022/04/29 03:06:18;;;;;;;1.60;1.60;;;19.60;63.50;;;;;;5090782;27;43900;-71
2022/04/29 03:08:46;;;;;;;1.50;1.50;;;19.70;63.10;;;;;;5108759;27;43946;-71
2022/04/29 03:11:14;;;;;;;1.70;1.70;;;19.70;63.00;;;;;;5090189;27;46301;-72
2022/04/29 03:13:43;;;;;;;1.67;1.67;;;19.60;63.00;;;;;;5102760;27;43410;-72
2022/04/29 03:16:14;;;;;;;1.70;1.70;;;19.50;63.00;;;;;;5100979;27;43486;-72
2022/04/29 03:18:43;;;;;;;1.60;1.60;;;19.40;63.30;;;;;;5085236;27;43447;-71
2022/04/29 03:21:13;;;;;;;1.57;1.57;;;19.30;63.60;;;;;;5090296;27;44169;-72
2022/04/29 03:23:40;;;;;;;1.60;1.60;;;19.20;63.80;;;;;;5090812;27;45328;-71
2022/04/29 03:26:08;;;;;;;1.83;1.83;;;19.20;64.00;;;;;;5109352;27;44013;-71
2022/04/29 03:28:37;;;;;;;1.60;1.60;;;19.10;64.20;;;;;;5090688;27;44190;-71
2022/04/29 03:31:05;;;;;;;1.70;1.70;;;19.20;64.90;;;;;;5109283;27;43888;-71
2022/04/29 03:33:54;;;;;;;1.57;1.57;;;19.20;64.80;;;;;;5108117;27;43938;-71
2022/04/29 03:36:22;;;;;;;1.60;1.60;;;19.30;64.40;;;;;;5090186;27;44004;-71
2022/04/29 03:38:54;;;;;;;1.70;1.70;;;19.40;63.90;;;;;;5090997;27;43945;-71
2022/04/29 03:41:22;;;;;;;1.70;1.70;;;19.40;63.70;;;;;;5089898;27;45273;-72
2022/04/29 03:43:56;;;;;;;1.83;1.83;;;19.30;63.70;;;;;;5090674;27;45866;-72
2022/04/29 03:46:30;;;;;;;2.17;2.07;;;19.30;63.80;;;;;;5090092;27;44114;-71
2022/04/29 03:49:37;;;;;;;2.20;2.10;;;19.20;63.90;;;;;;5082163;27;44188;-71
2022/04/29 03:52:20;;;;;;;2.13;2.00;;;19.10;64.10;;;;;;5082804;27;46051;-71
2022/04/29 03:54:49;;;;;;;2.23;2.10;;;19.10;64.40;;;;;;5083738;27;44643;-71
2022/04/29 03:57:18;;;;;;;2.70;2.50;;;19.10;64.60;;;;;;5079715;27;43365;-71
2022/04/29 03:59:48;;;;;;;2.43;2.33;;;19.00;64.50;;;;;;5084118;27;43985;-71
2022/04/29 04:02:17;;;;;;;3.20;2.90;;;19.00;64.60;;;;;;5069982;27;45584;-71
2022/04/29 04:04:48;;;;;;;2.97;2.77;;;19.00;65.10;;;;;;5090348;27;44750;-71
2022/04/29 04:07:17;;;;;;;3.10;2.80;;;19.10;65.10;;;;;;5089557;27;43948;-72
2022/04/29 04:10:06;;;;;;;2.70;2.50;;;19.20;64.80;;;;;;5090771;27;43392;-71
2022/04/29 04:12:39;;;;;;;5.33;3.07;;;19.50;64.30;;;;;;5089833;27;45547;-71
2022/04/29 04:15:27;;;;;;;3.67;3.13;;;19.70;63.70;;;;;;5101229;27;43480;-72
2022/04/29 04:17:55;;;;;;;3.33;2.97;;;19.70;63.20;;;;;;5090014;27;44006;-72
2022/04/29 04:20:24;;;;;;;3.70;3.33;;;19.70;63.00;;;;;;5083064;27;43919;-71
2022/04/29 04:23:00;;;;;;;3.40;3.10;;;19.60;63.10;;;;;;5090186;27;44773;-70
2022/04/29 04:25:29;;;;;;;3.10;2.90;;;19.50;63.90;;;;;;5089815;27;44124;-72
2022/04/29 04:27:57;;;;;;;4.30;3.03;;;19.40;63.40;;;;;;5090506;27;43887;-72
2022/04/29 04:30:37;;;;;;;3.60;3.30;;;19.30;63.70;;;;;;5090805;27;44073;-72
2022/04/29 04:33:06;;;;;;;4.03;3.43;;;19.30;64.00;;;;;;5089861;27;45725;-72
2022/04/29 04:35:35;;;;;;;3.47;3.17;;;19.20;64.10;;;;;;5089324;27;45023;-71
2022/04/29 04:38:03;;;;;;;3.37;3.07;;;19.20;64.50;;;;;;5090316;27;43943;-72
2022/04/29 04:40:44;;;;;;;3.57;3.27;;;19.20;65.00;;;;;;5090695;27;43931;-72
2022/04/29 04:43:18;;;;;;;3.17;2.53;;;19.30;64.80;;;;;;5103840;27;43975;-72
2022/04/29 04:45:48;;;;;;;4.87;3.40;;;19.40;64.30;;;;;;5090287;27;43514;-71
2022/04/29 04:48:39;;;;;;;3.60;3.27;;;19.40;63.90;;;;;;5096072;27;43308;-71
2022/04/29 04:51:27;;;;;;;6.00;3.40;;;19.40;63.70;;;;;;5105967;27;43884;-71
2022/04/29 04:54:01;;;;;;;5.37;3.73;;;19.30;63.70;;;;;;5089605;27;43943;-71
2022/04/29 04:56:30;;;;;;;4.33;3.37;;;19.30;63.90;;;;;;5089322;27;44012;-71
2022/04/29 04:58:59;;;;;;;5.17;3.70;;;19.20;64.10;;;;;;5090017;27;43861;-71
2022/04/29 05:01:27;;;;;;;4.60;3.60;;;19.10;64.20;;;;;;5089941;27;44069;-71
2022/04/29 05:04:33;;;;;;;4.23;3.70;;;19.10;64.30;;;;;;5107198;27;43898;-72
2022/04/29 05:07:21;;;;;;;4.03;3.63;;;19.10;64.60;;;;;;5105243;27;44433;-72
2022/04/29 05:09:49;;;;;;;5.93;3.53;;;19.00;64.60;;;;;;5088653;27;44248;-72
2022/04/29 05:12:17;;;;;;;4.43;4.10;;;19.00;65.00;;;;;;5089969;27;44035;-71
2022/04/29 05:15:08;;;;;;;7.00;4.23;;;19.10;65.30;;;;;;5088902;27;43988;-72
2022/04/29 05:17:38;;;;;;;5.27;3.63;;;19.20;65.60;;;;;;5089431;27;44489;-72
2022/04/29 05:20:27;;;;;;;5.17;3.90;;;19.50;64.50;;;;;;5106959;27;44002;-71
2022/04/29 05:22:56;;;;;;;4.47;3.70;;;19.60;63.70;;;;;;5090258;27;43830;-71
2022/04/29 05:25:24;;;;;;;6.10;3.93;;;19.70;63.20;;;;;;5089123;27;45679;-72
2022/04/29 05:28:10;;;;;;;5.70;4.23;;;19.70;63.10;;;;;;5104567;27;43456;-72
2022/04/29 05:30:57;;;;;;;4.13;3.73;;;19.60;63.00;;;;;;5104928;27;43383;-71
2022/04/29 05:33:44;;;;;;;4.80;4.30;;;19.50;63.10;;;;;;5101190;27;43921;-71
2022/04/29 05:36:38;;;;;;;7.37;4.60;;;19.40;63.50;;;;;;5067511;27;43999;-71
2022/04/29 05:42:23;;;;;;;5.03;4.57;;;19.20;64.70;;;;;;5106920;27;43478;-72
2022/04/29 05:44:51;;;;;;;4.90;4.30;;;19.10;64.10;;;;;;5108197;27;44082;-72
2022/04/29 05:47:19;;;;;;;5.73;4.27;;;19.10;64.90;;;;;;5088832;27;45864;-72
2022/04/29 05:49:50;;;;;;;5.63;3.97;;;19.20;65.00;;;;;;5088904;27;44806;-72
2022/04/29 05:52:23;;;;;;;5.97;4.30;;;19.30;64.60;;;;;;5089098;27;43466;-71
2022/04/29 05:54:52;;;;;;;5.37;4.40;;;19.40;64.20;;;;;;5082939;27;44011;-72
2022/04/29 05:57:28;;;;;;;4.70;3.47;;;19.40;63.90;;;;;;5088332;27;44822;-72
2022/04/29 05:59:58;;;;;;;4.27;3.87;;;19.30;63.60;;;;;;5088724;27;44644;-71
2022/04/29 06:02:45;;;;;;;4.10;3.70;;;19.30;63.80;;;;;;5104310;27;43949;-72
2022/04/29 06:05:18;;;;;;;4.70;4.30;;;19.20;64.00;;;;;;5088918;27;43960;-71
2022/04/29 06:07:47;;;;;;;4.90;4.37;;;19.10;64.10;;;;;;5088701;27;46596;-71
2022/04/29 06:10:32;;;;;;;4.27;3.87;;;19.10;64.30;;;;;;5088152;27;43948;-71
2022/04/29 06:13:00;;;;;;;4.70;3.77;;;19.10;64.50;;;;;;5088834;27;43403;-72
2022/04/29 06:15:32;;;;;;;4.50;4.10;;;19.00;64.50;;;;;;5088374;27;44477;-71
2022/04/29 06:18:18;;;;;;;4.57;4.17;;;19.00;64.60;;;;;;5104332;27;44222;-71
2022/04/29 06:21:05;;;;;;;4.63;3.90;;;19.00;65.10;;;;;;5096894;27;43982;-71
2022/04/29 06:23:41;;;;;;;5.17;4.10;;;19.10;65.30;;;;;;5088651;27;43776;-72
2022/04/29 06:26:11;;;;;;;4.73;4.33;;;19.20;64.90;;;;;;5089088;27;44358;-72
2022/04/29 06:28:39;;;;;;;4.60;3.67;;;19.40;64.50;;;;;;5088383;27;46318;-72
2022/04/29 06:31:07;;;;;;;4.87;3.70;;;19.60;63.90;;;;;;5088412;27;44634;-72
2022/04/29 06:33:38;;;;;;;4.07;3.77;;;19.70;63.40;;;;;;5106793;27;44047;-71
2022/04/29 06:36:09;;;;;;;4.40;4.00;;;19.60;63.20;;;;;;5088659;27;43984;-72
2022/04/29 06:38:38;;;;;;;4.23;3.83;;;19.60;63.10;;;;;;5106839;27;43926;-71
2022/04/29 06:41:25;;;;;;;5.23;4.50;;;19.50;63.10;;;;;;5103433;27;43892;-72
2022/04/29 06:43:59;;;;;;;4.13;3.73;;;19.40;63.40;;;;;;5088977;27;43963;-72
2022/04/29 06:46:42;;;;;;;3.87;3.57;;;19.30;63.70;;;;;;5104095;27;43976;-72
2022/04/29 06:49:28;;;;;;;4.20;3.80;;;19.20;63.80;;;;;;5103097;27;43800;-71
2022/04/29 06:52:14;;;;;;;4.53;3.90;;;19.20;64.10;;;;;;5104000;27;43875;-72
2022/04/29 06:55:04;;;;;;;4.50;4.20;;;19.10;64.70;;;;;;5088010;27;43959;-71
2022/04/29 06:57:34;;;;;;;4.10;3.80;;;19.20;64.90;;;;;;5088535;27;44018;-71
2022/04/29 07:00:03;;;;;;;4.03;3.73;;;19.30;64.50;;;;;;5087984;27;45783;-71
2022/04/29 07:02:32;;;;;;;4.27;3.97;;;19.40;64.00;;;;;;5087201;27;44443;-72
2022/04/29 07:05:03;;;;;;;4.13;3.83;;;19.40;63.80;;;;;;5088227;27;43443;-72
2022/04/29 07:07:31;;;;;;;4.77;3.50;;;19.40;63.70;;;;;;5088008;27;43999;-72
2022/04/29 07:10:19;;;;;;;3.67;3.43;;;19.30;63.70;;;;;;5087622;27;43832;-71
2022/04/29 07:13:27;;;;;;;4.17;3.87;;;19.20;63.80;;;;;;5022241;28;43945;-71
2022/04/29 07:15:55;;;;;;;4.07;3.77;;;19.10;64.10;;;;;;5003131;28;43963;-72
2022/04/29 07:18:42;;;;;;;3.73;3.50;;;19.10;64.30;;;;;;5067545;27;43485;-72
2022/04/29 07:21:12;;;;;;;3.93;3.73;;;19.10;64.50;;;;;;5087440;27;44030;-72
2022/04/29 07:23:40;;;;;;;4.03;3.70;;;19.00;64.50;;;;;;5087497;27;44789;-72
2022/04/29 07:26:09;;;;;;;3.70;3.50;;;19.00;64.70;;;;;;5087921;27;43790;-72
2022/04/29 07:28:39;;;;;;;4.10;3.77;;;19.00;65.20;;;;;;5106575;27;43996;-71
2022/04/29 07:31:07;;;;;;;4.40;4.00;;;19.10;65.20;;;;;;5087330;27;44048;-72
2022/04/29 07:33:55;;;;;;;3.37;3.17;;;19.20;64.70;;;;;;5108279;27;43987;-71
2022/04/29 07:42:24;;;;;;;4.10;3.80;;;19.60;63.30;;;;;;5090564;27;43944;-71
2022/04/29 07:44:53;;;;;;;3.37;3.23;;;19.50;63.30;;;;;;5109339;27;43394;-72
2022/04/29 07:47:47;;;;;;;4.07;3.77;;;19.50;63.40;;;;;;5109196;27;43908;-72
2022/04/29 07:50:31;;;;;;;3.30;3.10;;;19.30;63.70;;;;;;5091027;27;43982;-71
2022/04/29 07:52:59;;;;;;;3.50;3.30;;;19.30;64.00;;;;;;5090586;27;45724;-72
2022/04/29 07:55:27;;;;;;;3.60;3.30;;;19.20;64.30;;;;;;5090097;27;43770;-72
2022/04/29 07:57:55;;;;;;;3.40;3.20;;;19.10;64.30;;;;;;5109500;27;43955;-72
2022/04/29 08:00:25;;;;;;;3.43;3.30;;;19.10;64.60;;;;;;5091053;27;44298;-72
2022/04/29 08:02:54;;;;;;;3.80;3.50;;;19.10;65.20;;;;;;5090634;27;44088;-72
2022/04/29 08:05:42;;;;;;;3.57;3.37;;;19.20;65.20;;;;;;5108856;27;44065;-72
2022/04/29 08:08:12;;;;;;;3.57;3.37;;;19.30;64.60;;;;;;5090806;27;44069;-71
2022/04/29 08:10:40;;;;;;;3.50;3.20;;;19.30;64.20;;;;;;5091041;27;44163;-71
2022/04/29 08:13:08;;;;;;;3.37;3.17;;;19.30;64.00;;;;;;5090418;27;46420;-71
2022/04/29 08:15:58;;;;;;;3.20;3.10;;;19.30;64.10;;;;;;5107920;27;43988;-72
2022/04/29 08:18:46;;;;;;;2.90;2.80;;;19.20;64.20;;;;;;5109521;27;44018;-72
2022/04/29 08:21:18;;;;;;;3.30;3.20;;;19.10;64.40;;;;;;5090651;27;43542;-71
2022/04/29 08:23:46;;;;;;;3.80;3.50;;;19.10;64.60;;;;;;5090516;27;45677;-72
2022/04/29 08:26:13;;;;;;;3.30;3.10;;;19.10;64.80;;;;;;5108092;27;44082;-71
2022/04/29 08:28:42;;;;;;;3.70;3.43;;;19.00;64.80;;;;;;5090434;27;43857;-71
2022/04/29 08:31:12;;;;;;;3.70;3.40;;;19.00;64.90;;;;;;5090299;27;44264;-71
2022/04/29 08:33:52;;;;;;;3.17;3.07;;;19.00;65.10;;;;;;5089539;27;44057;-71
2022/04/29 08:36:21;;;;;;;3.40;3.20;;;19.00;65.40;;;;;;5089722;27;43936;-71
2022/04/29 08:38:52;;;;;;;3.27;3.07;;;19.10;65.30;;;;;;5109119;27;43999;-72
2022/04/29 08:41:20;;;;;;;3.10;3.00;;;19.30;64.90;;;;;;5108810;27;43958;-71
2022/04/29 08:43:48;;;;;;;3.10;3.00;;;19.50;64.30;;;;;;5090125;27;44958;-71
2022/04/29 08:46:30;;;;;;;2.93;2.83;;;19.60;63.70;;;;;;5089911;27;43407;-71
2022/04/29 08:49:02;;;;;;;3.27;3.13;;;19.70;63.40;;;;;;5083345;27;43914;-72
2022/04/29 08:51:30;;;;;;;2.93;2.83;;;19.60;63.20;;;;;;5101855;27;44005;-71
2022/04/29 08:54:01;;;;;;;3.50;3.30;;;19.60;63.30;;;;;;5108493;27;44058;-73
2022/04/29 08:59:14;;;;;;;2.73;2.63;;;19.30;63.70;;;;;;5076123;27;44006;-71
2022/04/29 09:01:45;;;;;;;3.07;2.93;;;19.30;64.10;;;;;;5108681;27;44073;-72
2022/04/29 09:04:13;;;;;;;3.13;3.03;;;19.20;64.20;;;;;;5108065;27;43963;-71
2022/04/29 09:06:48;;;;;;;2.60;2.50;;;19.10;64.40;;;;;;5107932;27;44002;-72
2022/04/29 09:09:16;;;;;;;3.00;2.90;;;19.10;64.80;;;;;;5108353;27;44010;-71
2022/04/29 09:11:44;;;;;;;2.57;2.50;;;19.10;65.10;;;;;;5108148;27;44102;-71
2022/04/29 09:14:21;;;;;;;3.03;2.93;;;19.20;65.00;;;;;;5107869;27;43856;-72
2022/04/29 09:16:51;;;;;;;3.13;2.97;;;19.30;64.40;;;;;;5108023;27;43971;-71
2022/04/29 09:19:31;;;;;;;3.23;3.03;;;19.40;64.20;;;;;;5107967;27;43963;-71
2022/04/29 09:22:05;;;;;;;2.90;2.80;;;19.30;64.00;;;;;;5108781;27;43888;-72
2022/04/29 09:24:42;;;;;;;2.80;2.70;;;19.30;64.10;;;;;;5089311;27;46958;-72
2022/04/29 09:27:58;;;;;;;2.50;2.40;;;19.20;64.30;;;;;;5103207;27;43957;-71
2022/04/29 09:30:46;;;;;;;2.77;2.67;;;19.10;64.50;;;;;;5107351;27;44014;-71
2022/04/29 09:33:35;;;;;;;2.47;2.37;;;19.10;64.70;;;;;;5105044;27;43917;-71
2022/04/29 09:36:24;;;;;;;2.40;2.30;;;19.00;64.80;;;;;;5089118;27;45689;-72
2022/04/29 09:41:39;;;;;;;2.60;2.50;;;18.90;65.00;;;;;;5107478;27;44019;-71
2022/04/29 09:44:07;;;;;;;2.90;2.80;;;18.90;65.50;;;;;;5108244;27;44305;-72
2022/04/29 09:46:38;;;;;;;2.67;2.57;;;19.10;65.60;;;;;;5088566;27;46182;-71
2022/04/29 09:49:07;;;;;;;2.60;2.50;;;19.20;65.10;;;;;;5107538;27;43968;-71
2022/04/29 09:51:42;;;;;;;2.60;2.50;;;19.40;64.60;;;;;;5107275;27;44080;-72
2022/04/29 09:54:13;;;;;;;2.63;2.53;;;19.60;64.10;;;;;;5089080;27;43883;-71
2022/04/29 09:56:41;;;;;;;2.63;2.60;;;19.60;63.70;;;;;;5088090;27;45917;-71
2022/04/29 09:59:12;;;;;;;2.73;2.63;;;19.60;63.70;;;;;;5106869;27;43913;-71
2022/04/29 10:01:40;;;;;;;2.60;2.50;;;19.50;63.70;;;;;;5107437;27;44016;-72
2022/04/29 10:04:11;;;;;;;2.27;2.27;;;19.40;63.90;;;;;;5107830;27;44075;-71
2022/04/29 10:06:41;;;;;;;2.80;2.70;;;19.30;64.10;;;;;;5088935;27;46529;-72
2022/04/29 10:09:12;;;;;;;2.70;2.60;;;19.20;64.30;;;;;;5107738;27;43367;-71
2022/04/29 10:11:40;;;;;;;2.60;2.50;;;19.10;64.60;;;;;;5107485;27;43903;-72
2022/04/29 10:14:09;;;;;;;2.50;2.40;;;19.10;64.80;;;;;;5107641;27;43578;-71
2022/04/29 10:16:40;;;;;;;2.73;2.63;;;19.10;65.00;;;;;;5106634;27;44077;-72
2022/04/29 10:22:55;;;;;;;2.57;2.47;;;19.20;65.10;;;;;;5088417;27;43966;-72
2022/04/29 10:25:25;;;;;;;2.57;2.47;;;19.30;64.60;;;;;;5106991;27;43921;-72
2022/04/29 10:27:53;;;;;;;2.50;2.40;;;19.40;64.30;;;;;;5106985;27;44015;-71
2022/04/29 10:30:28;;;;;;;2.60;2.60;;;19.30;64.10;;;;;;5106535;27;43838;-71
2022/04/29 10:33:02;;;;;;;2.47;2.40;;;19.30;64.30;;;;;;5106998;27;43955;-72
2022/04/29 10:35:56;;;;;;;2.33;2.33;;;19.20;64.50;;;;;;5107088;27;43888;-72
2022/04/29 10:38:26;;;;;;;2.20;2.20;;;19.10;64.70;;;;;;5106440;27;43952;-73
2022/04/29 10:41:10;;;;;;;2.43;2.43;;;19.10;65.00;;;;;;5107878;27;43401;-72
2022/04/29 10:43:39;;;;;;;2.47;2.40;;;19.00;65.00;;;;;;5107019;27;43995;-71
2022/04/29 10:46:21;;;;;;;2.20;2.20;;;19.00;65.10;;;;;;5107341;27;43895;-71
2022/04/29 10:49:24;;;;;;;2.23;2.23;;;19.00;65.20;;;;;;5088059;27;44007;-72
2022/04/29 10:52:26;;;;;;;2.13;2.13;;;19.00;65.50;;;;;;5105868;27;43974;-70
2022/04/29 10:55:03;;;;;;;2.20;2.20;;;19.10;65.50;;;;;;5106840;27;43368;-71
2022/04/29 10:57:49;;;;;;;2.30;2.30;;;19.20;65.20;;;;;;5104219;27;43337;-71
2022/04/29 11:00:23;;;;;;;2.17;2.10;;;19.40;64.60;;;;;;5087721;27;45351;-71
2022/04/29 11:02:55;;;;;;;2.40;2.40;;;19.60;64.00;;;;;;5088096;27;44536;-71
2022/04/29 11:05:36;;;;;;;2.17;2.17;;;19.70;63.60;;;;;;5106520;27;44012;-71
2022/04/29 11:08:09;;;;;;;2.07;2.07;;;19.60;63.50;;;;;;5108332;27;43447;-71
2022/04/29 11:10:55;;;;;;;2.40;2.30;;;19.60;63.60;;;;;;5110183;27;44019;-72
2022/04/29 11:13:23;;;;;;;2.00;2.00;;;19.50;63.90;;;;;;5109909;27;44004;-71
2022/04/29 11:16:14;;;;;;;2.10;2.10;;;19.40;64.20;;;;;;5109201;27;44049;-72
2022/04/29 11:19:19;;;;;;;2.10;2.10;;;19.30;64.50;;;;;;5091854;27;44035;-72
2022/04/29 11:24:42;;;;;;;1.97;1.97;;;19.10;64.90;;;;;;5106168;27;43859;-72
2022/04/29 11:27:25;;;;;;;1.90;1.90;;;19.10;65.40;;;;;;5091233;27;43802;-71
2022/04/29 11:29:56;;;;;;;2.20;2.10;;;19.20;65.30;;;;;;5091600;27;44376;-72
2022/04/29 11:32:43;;;;;;;2.27;2.27;;;19.30;64.80;;;;;;5101580;27;43832;-72
2022/04/29 11:35:11;;;;;;;2.27;2.20;;;19.40;64.50;;;;;;5109806;27;43438;-71
2022/04/29 11:37:39;;;;;;;2.10;2.10;;;19.30;64.40;;;;;;5090995;27;43987;-70
2022/04/29 11:40:12;;;;;;;2.20;2.20;;;19.30;64.50;;;;;;5110169;27;43937;-71
2022/04/29 11:42:49;;;;;;;2.23;2.13;;;19.20;64.60;;;;;;5091028;27;45319;-71
2022/04/29 11:45:19;;;;;;;2.00;2.00;;;19.20;64.90;;;;;;5109377;27;43928;-72
2022/04/29 11:47:50;;;;;;;2.07;2.07;;;19.10;65.00;;;;;;5109824;27;44057;-71
2022/04/29 11:50:18;;;;;;;1.87;1.87;;;19.10;65.20;;;;;;5109915;27;44067;-70
2022/04/29 11:52:46;;;;;;;2.03;2.03;;;19.00;65.20;;;;;;5108217;27;43595;-71
2022/04/29 11:55:18;;;;;;;2.13;2.13;;;19.00;65.40;;;;;;5109080;27;43981;-72
2022/04/29 11:57:49;;;;;;;2.30;2.30;;;19.00;65.50;;;;;;5109504;27;44009;-71
2022/04/29 12:00:22;;;;;;;1.90;1.90;;;19.00;65.80;;;;;;5109791;27;43943;-72
2022/04/29 12:02:51;;;;;;;1.90;1.90;;;19.10;65.70;;;;;;5090685;27;44096;-72
2022/04/29 12:05:22;;;;;;;1.93;1.93;;;19.20;65.20;;;;;;5090568;27;43420;-71
2022/04/29 12:07:52;;;;;;;2.13;2.13;;;19.40;64.60;;;;;;5103019;27;43446;-71
2022/04/29 12:10:31;;;;;;;1.77;1.77;;;19.60;64.10;;;;;;5104267;27;43889;-71
2022/04/29 12:12:59;;;;;;;1.93;1.93;;;19.60;63.70;;;;;;5108857;27;44805;-72
2022/04/29 12:15:32;;;;;;;2.13;2.13;;;19.60;63.60;;;;;;5089928;27;44030;-72
2022/04/29 12:18:01;;;;;;;1.73;1.73;;;19.50;63.70;;;;;;5108820;27;43968;-71
2022/04/29 12:20:42;;;;;;;2.00;2.00;;;19.40;64.00;;;;;;5109545;27;43882;-72
2022/04/29 12:23:12;;;;;;;1.80;1.80;;;19.30;64.20;;;;;;5108938;27;44003;-72
2022/04/29 12:25:44;;;;;;;1.80;1.80;;;19.20;64.40;;;;;;5109015;27;43934;-72
2022/04/29 12:28:16;;;;;;;1.90;1.90;;;19.20;64.70;;;;;;5089769;27;44114;-71
2022/04/29 12:36:32;;;;;;;1.90;1.90;;;19.10;65.50;;;;;;5089866;27;44067;-72
2022/04/29 12:39:04;;;;;;;2.00;2.00;;;19.20;65.10;;;;;;5090483;27;43888;-72
2022/04/29 12:41:35;;;;;;;2.10;2.10;;;19.30;65.50;;;;;;5095489;27;44096;-72
2022/04/29 12:44:10;;;;;;;1.63;1.63;;;19.30;64.60;;;;;;5102469;27;43994;-71
2022/04/29 12:46:38;;;;;;;1.80;1.80;;;19.30;64.50;;;;;;5108442;27;43923;-71
2022/04/29 12:49:22;;;;;;;1.93;1.93;;;19.20;64.60;;;;;;5108446;27;44121;-72
2022/04/29 12:51:57;;;;;;;2.10;2.10;;;19.20;64.90;;;;;;5109487;27;43881;-72
2022/04/29 12:54:32;;;;;;;2.00;2.00;;;19.10;64.90;;;;;;5108435;27;44873;-71
2022/04/29 12:57:02;;;;;;;1.90;1.90;;;19.10;65.10;;;;;;5089883;27;44827;-72
2022/04/29 12:59:30;;;;;;;2.20;2.10;;;19.00;65.20;;;;;;5108651;27;44018;-72
2022/04/29 13:01:58;;;;;;;1.90;1.90;;;19.00;65.30;;;;;;5109101;27;44041;-72
2022/04/29 13:04:34;;;;;;;1.87;1.87;;;19.00;65.40;;;;;;5089624;27;44065;-71
2022/04/29 13:07:19;;;;;;;1.70;1.70;;;19.00;65.70;;;;;;5103754;27;44470;-71
2022/04/29 13:09:47;;;;;;;1.87;1.87;;;19.10;65.60;;;;;;5089769;27;44059;-71
2022/04/29 13:12:18;;;;;;;1.90;1.90;;;19.30;65.20;;;;;;5090181;27;44281;-71
2022/04/29 13:14:57;;;;;;;1.70;1.70;;;19.50;64.70;;;;;;5105746;27;44014;-72
2022/04/29 13:17:25;;;;;;;1.90;1.90;;;19.60;64.10;;;;;;5107851;27;44292;-72
2022/04/29 13:19:53;;;;;;;1.60;1.60;;;19.60;63.80;;;;;;5108110;27;44058;-72
2022/04/29 13:22:21;;;;;;;1.70;1.70;;;19.60;63.80;;;;;;5108303;27;43757;-71
2022/04/29 13:24:53;;;;;;;1.77;1.77;;;19.50;63.80;;;;;;5089428;27;45480;-72
2022/04/29 13:27:22;;;;;;;1.70;1.70;;;19.40;64.00;;;;;;5089013;27;44049;-71
2022/04/29 13:29:53;;;;;;;1.80;1.80;;;19.30;64.20;;;;;;5088380;27;44041;-71
2022/04/29 13:32:21;;;;;;;1.97;1.97;;;19.20;64.50;;;;;;5089259;27;43998;-71
2022/04/29 13:34:52;;;;;;;1.60;1.60;;;19.20;64.70;;;;;;5107653;27;44026;-72
2022/04/29 13:37:21;;;;;;;1.77;1.77;;;19.10;65.00;;;;;;5088852;27;44877;-72
2022/04/29 13:39:49;;;;;;;1.60;1.60;;;19.10;65.40;;;;;;5107953;27;44268;-71
2022/04/29 13:42:19;;;;;;;1.77;1.67;;;19.10;65.50;;;;;;5089364;27;43992;-73
2022/04/29 13:44:49;;;;;;;1.83;1.83;;;19.20;65.10;;;;;;5107801;27;44938;-71
2022/04/29 13:47:17;;;;;;;1.50;1.50;;;19.30;64.80;;;;;;5100357;27;43962;-71